Time;durP1;ratioP1;P1;durP2;ratioP2;P2;SDS_P1;SDS_P2;PMS_P1;PMS_P2;Temp;Humidity;BMP_temperature;BMP_pressure;BME280_temperature;BME280_humidity;BME280_pressure;Samples;Min_cycle;Max_cycle;Signal;HPM_P1;HPM_P2
2021/12/19 00:00:25;;;;;;;;;36.25;30.75;;;;;9.82;65.68;102999.31;5030043;28;45784;-66
2021/12/19 00:08:53;;;;;;;;;25.75;20.00;;;;;9.79;66.00;102988.44;5030739;28;45096;-63
2021/12/19 00:11:20;;;;;;;;;43.75;37.00;;;;;9.82;65.66;102990.41;5032969;28;45931;-65
2021/12/19 00:13:46;;;;;;;;;35.00;26.75;;;;;9.85;65.96;102978.16;5033817;28;45088;-64
2021/12/19 00:16:13;;;;;;;;;29.25;24.50;;;;;9.86;65.67;102984.41;5032779;28;45196;-64
2021/12/19 00:18:41;;;;;;;;;36.50;27.75;;;;;9.88;65.28;102982.75;5033076;28;45042;-64
2021/12/19 00:21:06;;;;;;;;;24.00;22.50;;;;;9.67;65.95;102947.56;5032999;28;45437;-64
2021/12/19 00:23:31;;;;;;;;;32.25;30.50;;;;;9.86;65.19;102974.66;5033165;28;45031;-64
2021/12/19 00:25:57;;;;;;;;;46.50;33.00;;;;;9.83;65.74;102969.09;5033966;28;45280;-63
2021/12/19 00:28:23;;;;;;;;;29.50;26.00;;;;;9.84;65.68;102962.03;5034420;28;44976;-64
2021/12/19 00:30:48;;;;;;;;;35.75;29.75;;;;;9.80;66.21;102962.66;5032272;28;47060;-64
2021/12/19 00:33:14;;;;;;;;;38.75;31.25;;;;;9.83;66.15;102966.44;5032117;28;45031;-65
2021/12/19 00:35:39;;;;;;;;;36.25;28.75;;;;;9.87;65.37;102968.50;5033629;28;45036;-64
2021/12/19 00:38:05;;;;;;;;;31.00;26.75;;;;;9.83;65.75;102955.75;5033725;28;45013;-64
2021/12/19 00:40:32;;;;;;;;;32.75;26.75;;;;;9.81;65.47;102961.84;5033046;28;45086;-66
2021/12/19 00:43:07;;;;;;;;;35.75;29.00;;;;;9.83;65.81;102962.84;5033512;28;45059;-65
2021/12/19 00:45:35;;;;;;;;;35.25;28.50;;;;;9.75;66.06;102955.28;5033877;28;45239;-65
2021/12/19 00:48:03;;;;;;;;;31.50;27.00;;;;;9.72;65.87;102946.16;5033512;28;45279;-64
2021/12/19 00:50:30;;;;;;;;;32.00;29.00;;;;;9.77;66.15;102953.63;5032040;28;46270;-64
2021/12/19 00:52:55;;;;;;;;;43.00;36.00;;;;;9.71;66.82;102945.22;5032939;28;44898;-66
2021/12/19 00:55:23;;;;;;;;;43.00;35.50;;;;;9.60;66.82;102948.91;5033068;28;44884;-66
2021/12/19 00:57:50;;;;;;;;;39.25;33.50;;;;;9.59;67.18;102944.44;5033262;28;44991;-64
2021/12/19 01:00:19;;;;;;;;;39.00;28.75;;;;;9.55;66.91;102940.63;5048196;28;46400;-64
2021/12/19 01:02:46;;;;;;;;;28.25;23.25;;;;;9.51;66.49;102935.91;5032707;28;45001;-65
2021/12/19 01:05:12;;;;;;;;;32.50;25.75;;;;;9.45;66.70;102921.25;5033378;28;45046;-63
2021/12/19 01:07:38;;;;;;;;;43.50;33.25;;;;;9.61;66.91;102928.50;5032889;28;45306;-64
2021/12/19 01:10:06;;;;;;;;;39.25;32.50;;;;;9.56;66.59;102925.53;5033000;28;45138;-65
2021/12/19 01:12:32;;;;;;;;;34.00;26.50;;;;;9.59;66.85;102928.41;5032573;28;44974;-63
2021/12/19 01:14:57;;;;;;;;;32.00;25.50;;;;;9.65;66.51;102935.88;5033024;28;45665;-64
2021/12/19 01:17:23;;;;;;;;;34.00;28.00;;;;;9.48;67.11;102901.00;5033820;28;45126;-65
2021/12/19 01:19:48;;;;;;;;;38.50;30.00;;;;;9.64;67.21;102936.72;5032702;28;45125;-64
2021/12/19 01:22:14;;;;;;;;;30.75;28.00;;;;;9.60;66.93;102940.91;5032848;28;48191;-64
2021/12/19 01:24:40;;;;;;;;;31.00;22.75;;;;;9.57;67.25;102933.66;5032487;28;45153;-65
2021/12/19 01:27:06;;;;;;;;;28.50;22.75;;;;;9.57;67.41;102930.97;5033325;28;45080;-65
2021/12/19 01:29:32;;;;;;;;;24.75;21.50;;;;;9.58;67.40;102935.47;5032699;28;45364;-64
2021/12/19 01:31:57;;;;;;;;;36.25;29.75;;;;;9.13;67.30;102859.59;5032802;28;44981;-64
2021/12/19 01:34:23;;;;;;;;;30.75;25.75;;;;;9.53;66.85;102936.91;5032831;28;45093;-64
2021/12/19 01:36:48;;;;;;;;;29.25;21.25;;;;;9.46;66.77;102912.44;5033691;28;44986;-64
2021/12/19 01:39:14;;;;;;;;;23.00;18.00;;;;;9.47;67.12;102922.25;5032058;28;44978;-64
2021/12/19 01:41:51;;;;;;;;;20.75;20.75;;;;;9.57;66.97;102927.41;5019622;28;44963;-65
2021/12/19 01:44:18;;;;;;;;;25.75;21.00;;;;;9.46;66.73;102917.75;5011500;28;44993;-64
2021/12/19 01:46:46;;;;;;;;;33.75;22.25;;;;;9.50;66.73;102934.09;5011930;28;45306;-64
2021/12/19 01:49:13;;;;;;;;;37.75;33.75;;;;;9.51;66.71;102925.22;5011833;28;46072;-64
2021/12/19 01:51:38;;;;;;;;;23.00;22.00;;;;;9.52;67.58;102926.16;5012025;28;45003;-63
2021/12/19 01:54:04;;;;;;;;;30.00;19.25;;;;;9.45;67.70;102932.81;5016654;28;45410;-63
2021/12/19 01:56:31;;;;;;;;;21.50;16.00;;;;;9.43;67.58;102918.47;5031037;28;45053;-64
2021/12/19 01:58:57;;;;;;;;;23.25;19.25;;;;;9.35;67.45;102898.38;5030004;28;45336;-65
2021/12/19 02:01:23;;;;;;;;;19.25;17.75;;;;;9.45;67.09;102922.16;5029417;28;45121;-67
2021/12/19 02:03:48;;;;;;;;;21.50;15.25;;;;;9.33;67.05;102906.25;5029500;28;45033;-65
2021/12/19 02:06:13;;;;;;;;;22.00;17.75;;;;;9.41;67.23;102923.69;5032908;28;45002;-65
2021/12/19 02:08:40;;;;;;;;;20.50;16.25;;;;;9.40;67.69;102915.59;5031402;28;45691;-65
2021/12/19 02:11:05;;;;;;;;;57.75;47.25;;;;;9.38;67.56;102917.25;5029751;28;45280;-65
2021/12/19 02:13:30;;;;;;;;;27.00;19.00;;;;;9.39;67.02;102914.69;5030051;28;45268;-64
2021/12/19 02:15:56;;;;;;;;;29.00;21.50;;;;;9.34;68.34;102910.78;5032392;28;45200;-64
2021/12/19 02:18:22;;;;;;;;;22.50;18.75;;;;;9.24;67.27;102895.00;5031453;28;45673;-65
2021/12/19 02:20:54;;;;;;;;;22.75;13.50;;;;;9.28;67.56;102910.38;5032183;28;45131;-65
2021/12/19 02:23:22;;;;;;;;;22.00;16.75;;;;;9.16;68.41;102901.56;5032473;28;45055;-65
2021/12/19 02:25:48;;;;;;;;;27.25;15.75;;;;;9.16;68.07;102896.25;5032281;28;44985;-66
2021/12/19 02:28:14;;;;;;;;;29.00;19.00;;;;;9.04;68.55;102882.97;5032115;28;46561;-65
2021/12/19 02:30:40;;;;;;;;;24.25;19.25;;;;;9.15;68.55;102899.72;5031804;28;44890;-64
2021/12/19 02:33:10;;;;;;;;;19.00;15.75;;;;;9.11;68.07;102893.25;5031901;28;45029;-64
2021/12/19 02:35:36;;;;;;;;;20.50;14.25;;;;;9.07;68.45;102891.19;5032697;28;44923;-63
2021/12/19 02:48:30;;;;;;;;;26.25;17.75;;;;;9.07;68.45;102882.28;5030935;28;45498;-64
2021/12/19 02:50:56;;;;;;;;;26.25;18.50;;;;;9.06;68.14;102885.75;5032206;28;44911;-64
2021/12/19 02:53:34;;;;;;;;;14.75;13.00;;;;;9.09;68.01;102889.56;5031413;28;44904;-65
2021/12/19 02:56:02;;;;;;;;;27.75;17.75;;;;;9.11;68.40;102882.59;5032322;28;45046;-65
2021/12/19 02:58:29;;;;;;;;;18.75;17.75;;;;;9.09;68.49;102876.25;5032275;28;45200;-64
2021/12/19 03:00:56;;;;;;;;;21.25;16.00;;;;;8.64;68.11;102789.69;5032044;28;45032;-64
2021/12/19 03:03:21;;;;;;;;;27.75;18.50;;;;;9.21;68.47;102877.03;5031288;28;45066;-64
2021/12/19 03:05:47;;;;;;;;;21.75;18.50;;;;;9.25;67.77;102875.50;5031663;28;45183;-64
2021/12/19 03:08:12;;;;;;;;;18.75;14.00;;;;;9.26;67.75;102880.00;5031288;28;45496;-64
2021/12/19 03:18:17;;;;;;;;;18.75;16.75;;;;;9.18;67.21;102839.50;5030830;28;45455;-65
2021/12/19 03:20:43;;;;;;;;;23.25;18.50;;;;;9.32;68.04;102859.09;5030607;28;45474;-65
2021/12/19 03:23:11;;;;;;;;;21.00;17.00;;;;;9.27;68.22;102859.59;5031492;28;45155;-64
2021/12/19 03:25:38;;;;;;;;;20.50;17.00;;;;;9.30;67.83;102858.03;5031494;28;45162;-65
2021/12/19 03:28:06;;;;;;;;;18.75;15.50;;;;;9.25;67.02;102856.81;5030986;28;45993;-64
2021/12/19 03:30:33;;;;;;;;;25.75;13.75;;;;;9.25;67.28;102856.81;5031594;28;45406;-66
2021/12/19 03:32:58;;;;;;;;;23.25;16.50;;;;;9.19;66.97;102861.78;5031619;28;45195;-64
2021/12/19 03:35:24;;;;;;;;;21.00;18.00;;;;;9.23;67.65;102866.47;5031686;28;45337;-64
2021/12/19 03:37:52;;;;;;;;;19.75;15.25;;;;;9.19;67.48;102861.78;5030341;28;46942;-64
2021/12/19 03:40:35;;;;;;;;;19.00;15.50;;;;;9.18;68.19;102850.16;5030620;28;45108;-63
2021/12/19 03:43:01;;;;;;;;;20.75;15.50;;;;;9.19;67.14;102860.03;5030339;28;45455;-64
2021/12/19 03:45:27;;;;;;;;;27.25;20.00;;;;;9.06;67.43;102859.09;5033860;28;45111;-64
2021/12/19 03:47:52;;;;;;;;;21.00;17.50;;;;;9.06;68.63;102860.03;5034426;28;45489;-64
2021/12/19 03:50:22;;;;;;;;;17.25;17.00;;;;;9.06;68.01;102865.38;5033123;28;45072;-65
2021/12/19 03:52:48;;;;;;;;;22.25;17.50;;;;;9.04;68.79;102862.59;5035004;28;45073;-63
2021/12/19 03:55:14;;;;;;;;;19.50;14.00;;;;;9.08;68.07;102860.13;5035048;28;45010;-64
2021/12/19 03:57:40;;;;;;;;;18.00;11.50;;;;;9.10;68.01;102862.06;5034217;28;45096;-65
2021/12/19 04:00:10;;;;;;;;;24.00;16.75;;;;;9.17;67.51;102860.72;5034371;28;45048;-63
2021/12/19 04:02:35;;;;;;;;;17.00;13.00;;;;;9.20;67.26;102867.19;5035163;28;45043;-66
2021/12/19 04:05:00;;;;;;;;;19.00;15.75;;;;;9.09;67.79;102836.25;5034703;28;45100;-65
2021/12/19 04:07:27;;;;;;;;;18.50;16.00;;;;;9.17;68.46;102864.34;5034053;28;45476;-64
2021/12/19 04:09:53;;;;;;;;;25.00;19.75;;;;;8.45;67.76;102739.59;5033797;28;45011;-64
2021/12/19 04:12:20;;;;;;;;;17.50;16.50;;;;;9.13;67.83;102862.28;5034646;28;45439;-64
2021/12/19 04:14:45;;;;;;;;;16.75;13.75;;;;;9.09;67.47;102854.91;5034963;28;44977;-63
2021/12/19 04:17:11;;;;;;;;;17.00;15.50;;;;;8.88;68.82;102829.50;5034398;28;45152;-65
2021/12/19 04:19:36;;;;;;;;;20.50;16.50;;;;;9.03;68.37;102839.41;5033054;28;45123;-63
2021/12/19 04:22:03;;;;;;;;;16.50;13.00;;;;;9.12;68.48;102848.84;5034506;28;45307;-64
2021/12/19 04:24:28;;;;;;;;;19.00;16.00;;;;;9.05;67.75;102855.50;5032775;28;45199;-66
2021/12/19 04:26:55;;;;;;;;;17.00;14.25;;;;;9.03;68.51;102843.81;5034223;28;44949;-64
2021/12/19 04:29:22;;;;;;;;;14.25;13.00;;;;;9.11;68.05;102849.69;5034239;28;44932;-65
2021/12/19 04:31:47;;;;;;;;;20.00;16.25;;;;;9.04;68.49;102845.66;5034543;28;45172;-63
2021/12/19 04:34:13;;;;;;;;;17.25;16.00;;;;;9.08;68.20;102846.81;5034683;28;45061;-64
2021/12/19 04:36:42;;;;;;;;;16.25;14.50;;;;;9.06;68.54;102840.41;5034321;28;45624;-64
2021/12/19 04:39:34;;;;;;;;;15.25;11.00;;;;;9.01;68.57;102841.06;5034120;28;44934;-64
2021/12/19 04:53:05;;;;;;;;;10.00;10.00;;;;;8.98;68.82;102818.59;5033715;28;44965;-65
2021/12/19 05:00:52;;;;;;;;;20.00;10.75;;;;;8.92;68.20;102807.53;5033647;28;45215;-64
2021/12/19 05:03:45;;;;;;;;;13.00;12.25;;;;;8.90;68.62;102807.44;5033447;28;45072;-63
2021/12/19 05:14:30;;;;;;;;;16.00;11.25;;;;;8.98;68.70;102806.19;5032377;28;45078;-65
2021/12/19 05:17:01;;;;;;;;;10.00;10.00;;;;;9.05;68.35;102815.50;5032788;28;45048;-64
2021/12/19 05:19:42;;;;;;;;;13.50;11.50;;;;;9.06;68.33;102813.75;5032746;28;46462;-64
2021/12/19 05:22:07;;;;;;;;;16.00;12.25;;;;;9.02;68.75;102799.31;5031735;28;45122;-64
2021/12/19 05:27:01;;;;;;;;;14.00;11.00;;;;;9.09;69.23;102816.63;5033513;28;45096;-63
2021/12/19 05:29:27;;;;;;;;;13.75;13.50;;;;;9.12;68.45;102808.84;5031646;28;45148;-63
2021/12/19 05:31:52;;;;;;;;;12.00;9.50;;;;;9.13;68.38;102808.94;5031064;28;45004;-64
2021/12/19 05:34:17;;;;;;;;;18.50;10.50;;;;;9.11;69.35;102815.91;5032781;28;45311;-63
2021/12/19 05:45:19;;;;;;;;;16.50;12.50;;;;;9.03;69.12;102810.06;5012836;28;45093;-63
2021/12/19 05:47:48;;;;;;;;;12.00;9.75;;;;;9.06;68.94;102806.69;5012903;28;45176;-64
2021/12/19 05:50:15;;;;;;;;;13.75;10.75;;;;;8.96;68.63;102780.22;5028923;28;45133;-66
2021/12/19 05:52:42;;;;;;;;;10.00;9.00;;;;;9.07;68.98;102811.19;5030716;28;45159;-64
2021/12/19 05:55:08;;;;;;;;;13.00;11.00;;;;;8.93;69.06;102788.97;5032377;28;45621;-66
2021/12/19 05:57:34;;;;;;;;;14.00;11.75;;;;;8.94;69.44;102788.16;5031733;28;45209;-64
2021/12/19 05:59:59;;;;;;;;;12.00;8.25;;;;;8.99;69.28;102804.44;5032272;28;45515;-65
2021/12/19 06:02:26;;;;;;;;;11.00;9.00;;;;;9.00;69.36;102801.88;5032985;28;45001;-64
2021/12/19 06:04:51;;;;;;;;;10.25;9.25;;;;;9.01;68.85;102806.41;5032734;28;44914;-64
2021/12/19 06:07:16;;;;;;;;;15.25;11.00;;;;;9.03;68.04;102801.16;5032058;28;45085;-65
2021/12/19 06:09:42;;;;;;;;;13.25;10.75;;;;;8.99;68.40;102792.06;5031882;28;45126;-65
2021/12/19 06:12:07;;;;;;;;;11.00;8.50;;;;;8.69;67.68;102744.69;5032798;28;44898;-64
2021/12/19 06:14:34;;;;;;;;;11.00;9.75;;;;;8.95;67.88;102797.06;5031501;28;45369;-65
2021/12/19 06:17:00;;;;;;;;;12.25;10.75;;;;;8.85;68.92;102790.22;5033031;28;45029;-66
2021/12/19 06:19:27;;;;;;;;;9.25;9.25;;;;;8.92;69.14;102800.44;5031281;28;45593;-65
2021/12/19 06:21:52;;;;;;;;;10.50;10.25;;;;;8.91;68.87;102811.00;5032115;28;45091;-64
2021/12/19 06:24:18;;;;;;;;;14.75;9.00;;;;;8.90;68.80;102798.50;5032709;28;45072;-64
2021/12/19 06:26:43;;;;;;;;;13.00;12.25;;;;;8.95;69.25;102789.97;5032381;28;45013;-64
2021/12/19 06:29:09;;;;;;;;;13.75;12.00;;;;;8.95;69.22;102789.97;5031929;28;45053;-64
2021/12/19 06:31:34;;;;;;;;;13.50;10.75;;;;;8.90;68.70;102796.75;5031797;28;45149;-64
2021/12/19 06:34:00;;;;;;;;;14.25;10.25;;;;;8.85;68.34;102793.78;5032345;28;45398;-65
2021/12/19 06:36:26;;;;;;;;;13.50;10.25;;;;;8.85;69.83;102787.53;5032591;28;45216;-65
2021/12/19 06:38:52;;;;;;;;;9.00;5.50;;;;;8.89;69.13;102794.00;5031578;28;45705;-63
2021/12/19 06:41:17;;;;;;;;;12.75;11.75;;;;;8.79;68.58;102776.47;5032155;28;44996;-64
2021/12/19 06:43:43;;;;;;;;;13.75;12.00;;;;;8.94;68.31;102797.88;5032119;28;44951;-64
2021/12/19 06:46:08;;;;;;;;;12.50;10.75;;;;;8.97;69.06;102795.41;5032992;28;45113;-64
2021/12/19 06:48:33;;;;;;;;;14.50;10.00;;;;;9.00;68.53;102796.53;5031054;28;45473;-65
2021/12/19 06:50:59;;;;;;;;;10.75;9.50;;;;;9.00;67.56;102801.88;5031734;28;44993;-65
2021/12/19 06:53:24;;;;;;;;;10.25;8.25;;;;;8.75;67.72;102751.34;5032149;28;45130;-64
2021/12/19 06:55:50;;;;;;;;;17.50;10.00;;;;;8.96;68.15;102790.91;5032466;28;45081;-64
2021/12/19 06:58:15;;;;;;;;;9.00;7.00;;;;;8.90;67.68;102796.75;5031872;28;45551;-63
2021/12/19 07:00:41;;;;;;;;;10.75;9.00;;;;;8.83;67.83;102779.44;5031655;28;45029;-64
2021/12/19 07:03:06;;;;;;;;;9.00;8.75;;;;;8.90;67.59;102790.50;5031502;28;45155;-63
2021/12/19 07:05:32;;;;;;;;;13.50;11.50;;;;;8.93;67.51;102796.06;5032528;28;45037;-63
2021/12/19 07:07:57;;;;;;;;;8.00;8.00;;;;;8.83;67.78;102786.53;5031962;28;45402;-64
2021/12/19 07:10:22;;;;;;;;;10.50;9.25;;;;;8.90;68.42;102794.09;5031893;28;44962;-64
2021/12/19 07:12:48;;;;;;;;;8.75;8.75;;;;;8.79;67.53;102780.06;5032294;28;45052;-64
2021/12/19 07:15:14;;;;;;;;;11.75;8.25;;;;;8.84;68.68;102783.03;5032239;28;45023;-63
2021/12/19 07:17:40;;;;;;;;;14.25;12.00;;;;;8.81;68.08;102780.16;5031855;28;45203;-64
2021/12/19 07:20:06;;;;;;;;;11.25;9.50;;;;;8.87;67.89;102804.56;5033386;28;44996;-64
2021/12/19 07:22:32;;;;;;;;;11.25;8.75;;;;;8.83;68.09;102797.19;5034683;28;45264;-63
2021/12/19 07:24:57;;;;;;;;;14.25;11.00;;;;;8.81;67.76;102798.81;5034860;28;45218;-64
2021/12/19 07:27:23;;;;;;;;;0.25;0.25;;;;;8.69;68.50;102776.69;5034082;28;45527;-64
2021/12/19 07:29:48;;;;;;;;;11.50;10.50;;;;;8.58;68.38;102757.28;5033410;28;44887;-64
2021/12/19 07:32:14;;;;;;;;;11.75;9.50;;;;;8.81;67.91;102788.13;5034287;28;44981;-65
2021/12/19 07:34:40;;;;;;;;;9.50;7.50;;;;;8.22;68.16;102693.66;5033117;28;45169;-63
2021/12/19 07:37:06;;;;;;;;;10.75;9.25;;;;;8.74;68.65;102781.47;5033913;28;47303;-64
2021/12/19 07:42:01;;;;;;;;;8.75;7.00;;;;;8.76;68.63;102781.59;5034784;28;45016;-64
2021/12/19 07:44:26;;;;;;;;;9.50;9.50;;;;;8.42;68.67;102720.72;5034925;28;44993;-64
2021/12/19 07:46:51;;;;;;;;;10.75;9.75;;;;;8.79;68.15;102781.78;5035052;28;45681;-64
2021/12/19 07:49:17;;;;;;;;;12.00;9.25;;;;;8.76;68.09;102778.91;5035149;28;44997;-64
2021/12/19 07:51:42;;;;;;;;;10.75;8.00;;;;;8.75;68.10;102790.44;5033644;28;45246;-64
2021/12/19 07:54:08;;;;;;;;;12.25;10.50;;;;;8.73;68.02;102787.66;5035426;28;45112;-65
2021/12/19 07:56:34;;;;;;;;;11.50;11.25;;;;;8.69;67.20;102787.34;5034902;28;44982;-64
2021/12/19 07:59:00;;;;;;;;;10.75;9.25;;;;;8.64;68.22;102792.34;5034277;28;45022;-65
2021/12/19 08:01:25;;;;;;;;;11.50;8.75;;;;;8.64;68.30;102792.34;5034248;28;45355;-65
2021/12/19 08:03:50;;;;;;;;;6.00;6.00;;;;;8.65;67.54;102786.22;5034708;28;44856;-65
2021/12/19 08:06:16;;;;;;;;;9.25;8.75;;;;;8.65;68.18;102792.47;5033853;28;54233;-64
2021/12/19 08:08:47;;;;;;;;;9.75;8.75;;;;;8.67;67.95;102789.91;5033789;28;45131;-64
2021/12/19 08:13:56;;;;;;;;;9.75;5.50;;;;;8.75;67.95;102794.00;5033072;28;45175;-65
2021/12/19 08:16:21;;;;;;;;;11.50;11.25;;;;;8.74;67.53;102797.47;5032533;28;45595;-65
2021/12/19 08:18:46;;;;;;;;;13.00;13.00;;;;;8.74;68.32;102794.81;5031718;28;45184;-64
2021/12/19 08:21:12;;;;;;;;;10.50;9.50;;;;;8.64;68.11;102774.63;5032889;28;45046;-65
2021/12/19 08:23:37;;;;;;;;;12.50;11.00;;;;;8.73;67.66;102786.72;5034234;28;45378;-65
2021/12/19 08:26:03;;;;;;;;;15.50;12.25;;;;;8.82;68.09;102792.66;5033105;28;45145;-63
2021/12/19 08:28:28;;;;;;;;;15.00;13.50;;;;;8.83;68.22;102794.53;5034169;28;44903;-63
2021/12/19 08:30:53;;;;;;;;;14.00;10.25;;;;;8.41;67.04;102716.19;5033417;28;45088;-65
2021/12/19 08:33:19;;;;;;;;;15.75;11.75;;;;;8.87;67.86;102790.31;5034532;28;45120;-64
2021/12/19 08:35:45;;;;;;;;;11.75;11.75;;;;;8.89;67.75;102791.31;5033983;28;45480;-64
2021/12/19 08:38:11;;;;;;;;;17.75;14.50;;;;;8.88;67.53;102786.84;5033442;28;45060;-64
2021/12/19 08:40:37;;;;;;;;;20.00;13.25;;;;;8.89;67.21;102778.91;5033275;28;44981;-64
2021/12/19 08:43:05;;;;;;;;;18.75;13.75;;;;;8.87;67.34;102783.22;5032309;28;45392;-64
2021/12/19 08:45:30;;;;;;;;;15.50;14.25;;;;;8.92;66.85;102787.13;5022240;28;45089;-65
2021/12/19 08:47:56;;;;;;;;;14.25;12.25;;;;;8.93;67.03;102791.63;5011418;28;44970;-65
2021/12/19 08:50:23;;;;;;;;;16.25;14.25;;;;;8.94;67.65;102780.16;5028827;28;45041;-64
2021/12/19 08:52:49;;;;;;;;;19.25;11.75;;;;;8.87;66.99;102783.22;5019220;28;46069;-65
2021/12/19 08:55:14;;;;;;;;;12.75;11.25;;;;;8.58;67.04;102736.94;5015449;28;46315;-65
2021/12/19 08:57:40;;;;;;;;;12.75;10.75;;;;;8.89;66.25;102784.25;5032535;28;44989;-66
2021/12/19 09:00:10;;;;;;;;;10.50;9.25;;;;;8.83;65.87;102783.84;5031758;28;44947;-66
2021/12/19 09:02:36;;;;;;;;;17.50;14.00;;;;;8.70;66.77;102766.13;5042671;28;45061;-65
2021/12/19 09:05:01;;;;;;;;;12.50;10.00;;;;;8.72;67.40;102777.81;5018541;28;45057;-64
2021/12/19 09:07:27;;;;;;;;;18.50;14.75;;;;;8.63;66.50;102772.78;5030030;28;44950;-63
2021/12/19 09:09:52;;;;;;;;;12.50;8.25;;;;;8.58;66.67;102758.25;5032488;28;45239;-66
2021/12/19 09:12:18;;;;;;;;;18.75;14.50;;;;;8.75;66.60;102788.66;5014910;28;45113;-65
2021/12/19 09:14:43;;;;;;;;;16.25;12.00;;;;;8.82;67.69;102792.66;5018960;28;45587;-63
2021/12/19 09:17:09;;;;;;;;;15.25;13.50;;;;;8.79;67.06;102790.75;5032202;28;45350;-63
2021/12/19 09:19:34;;;;;;;;;19.75;16.75;;;;;8.79;67.35;102792.47;5031582;28;45450;-65
2021/12/19 09:21:59;;;;;;;;;14.25;11.00;;;;;8.80;67.45;102786.31;5030733;28;45057;-66
2021/12/19 09:24:25;;;;;;;;;12.50;11.50;;;;;8.84;67.42;102781.31;5013234;28;46203;-64
2021/12/19 09:26:50;;;;;;;;;16.25;14.50;;;;;8.71;66.81;102760.00;5023141;28;45553;-67
2021/12/19 09:29:16;;;;;;;;;18.75;13.25;;;;;8.88;67.18;102790.41;5016796;28;45167;-65
2021/12/19 09:31:41;;;;;;;;;13.75;12.00;;;;;8.78;67.68;102766.66;5048959;28;45215;-65
2021/12/19 09:34:07;;;;;;;;;23.75;15.50;;;;;8.65;66.52;102749.81;5028262;28;45128;-64
2021/12/19 09:36:33;;;;;;;;;20.25;18.00;;;;;8.84;66.88;102773.31;5012040;28;45050;-66
2021/12/19 09:38:59;;;;;;;;;20.50;17.00;;;;;8.94;66.92;102793.50;5030411;28;45363;-65
2021/12/19 09:41:29;;;;;;;;;15.75;12.75;;;;;8.94;67.01;102785.50;5029130;28;45293;-65
2021/12/19 09:43:59;;;;;;;;;23.50;12.75;;;;;8.98;66.62;102791.94;5009303;28;45667;-64
2021/12/19 09:46:29;;;;;;;;;13.25;11.00;;;;;9.00;66.25;102793.88;5027843;28;45103;-65
2021/12/19 09:48:55;;;;;;;;;13.00;12.50;;;;;8.88;66.23;102779.75;5032048;28;44944;-64
2021/12/19 09:51:20;;;;;;;;;11.00;11.00;;;;;8.98;66.28;102787.53;5031214;28;45197;-64
2021/12/19 09:53:46;;;;;;;;;19.75;15.75;;;;;8.85;66.23;102775.13;5030252;28;45347;-66
2021/12/19 09:56:12;;;;;;;;;14.75;12.25;;;;;9.00;66.48;102788.53;5030087;28;44889;-63
2021/12/19 09:58:39;;;;;;;;;19.75;14.50;;;;;8.92;66.85;102783.53;5029081;28;45201;-66
2021/12/19 10:01:08;;;;;;;;;15.75;15.50;;;;;8.87;67.10;102775.22;5029927;28;45172;-65
2021/12/19 10:03:35;;;;;;;;;18.25;17.00;;;;;8.83;67.27;102765.19;5031437;28;45678;-65
2021/12/19 10:06:28;;;;;;;;;20.25;19.25;;;;;8.89;66.56;102770.91;5032422;28;45146;-65
2021/12/19 10:09:18;;;;;;;;;17.00;13.25;;;;;8.85;67.60;102758.22;5025569;28;45026;-65
2021/12/19 10:14:34;;;;;;;;;18.75;17.75;;;;;8.97;66.80;102759.00;5029093;28;45381;-69
2021/12/19 10:17:02;;;;;;;;;26.75;24.00;;;;;9.00;66.95;102758.31;5022218;28;45124;-68
2021/12/19 10:19:50;;;;;;;;;19.00;14.00;;;;;9.01;67.25;102749.50;5029151;28;45394;-68
2021/12/19 10:22:24;;;;;;;;;19.75;18.50;;;;;9.03;67.25;102754.09;5030807;28;45119;-69
2021/12/19 10:24:51;;;;;;;;;25.75;20.50;;;;;8.94;65.97;102741.91;5026733;28;45056;-65
2021/12/19 10:27:34;;;;;;;;;28.25;18.00;;;;;9.12;66.61;102752.84;5025665;28;44886;-67
2021/12/19 10:30:00;;;;;;;;;20.75;17.75;;;;;9.14;65.88;102746.78;5028588;28;45249;-67
2021/12/19 10:32:26;;;;;;;;;19.25;19.25;;;;;9.14;65.86;102751.19;5029029;28;45003;-70
2021/12/19 10:35:12;;;;;;;;;22.50;20.00;;;;;9.02;66.16;102728.25;5026396;28;45869;-67
2021/12/19 10:37:38;;;;;;;;;21.50;20.00;;;;;9.10;66.28;102736.72;5026899;28;45112;-67
2021/12/19 10:40:04;;;;;;;;;22.25;16.25;;;;;8.99;65.27;102717.41;5028648;28;45183;-69
2021/12/19 10:42:34;;;;;;;;;17.25;16.25;;;;;9.14;65.02;102736.13;5031741;28;44944;-67
2021/12/19 10:47:44;;;;;;;;;19.00;16.25;;;;;9.16;64.67;102749.56;5028536;28;44987;-67
2021/12/19 10:50:09;;;;;;;;;25.50;17.50;;;;;9.07;65.14;102722.28;5028554;28;45042;-66
2021/12/19 10:52:38;;;;;;;;;26.25;20.50;;;;;9.13;64.90;102733.34;5028189;28;45113;-66
2021/12/19 10:55:10;;;;;;;;;19.25;13.50;;;;;9.14;64.70;102737.84;5028923;28;45776;-67
2021/12/19 10:57:38;;;;;;;;;23.50;19.50;;;;;9.02;64.89;102721.97;5030866;28;45001;-67
2021/12/19 11:00:12;;;;;;;;;30.75;17.75;;;;;9.14;64.74;102733.47;5028123;28;44897;-68
2021/12/19 11:02:42;;;;;;;;;24.25;19.75;;;;;9.15;64.02;102724.63;5028443;28;44954;-68
2021/12/19 11:05:39;;;;;;;;;20.50;19.75;;;;;9.23;64.24;102725.13;5028063;28;45477;-67
2021/12/19 11:08:08;;;;;;;;;19.00;18.00;;;;;9.22;63.83;102720.59;5027790;28;45458;-69
2021/12/19 11:10:35;;;;;;;;;21.50;20.25;;;;;9.25;63.74;102725.22;5026423;28;45035;-69
2021/12/19 11:13:09;;;;;;;;;22.00;22.00;;;;;9.25;63.65;102715.47;5029780;28;45177;-70
2021/12/19 11:15:35;;;;;;;;;16.00;14.50;;;;;9.16;63.96;102701.56;5027488;28;45838;-68
2021/12/19 11:18:01;;;;;;;;;22.50;17.00;;;;;9.27;64.13;102718.22;5027121;28;45224;-67
2021/12/19 11:20:26;;;;;;;;;22.25;20.00;;;;;9.17;63.66;102687.38;5027738;28;45036;-68
2021/12/19 11:22:53;;;;;;;;;18.25;13.50;;;;;9.33;63.55;102708.84;5022897;28;45078;-68
2021/12/19 11:25:19;;;;;;;;;19.25;15.50;;;;;9.17;63.30;102676.72;5008649;28;45726;-67
2021/12/19 11:27:44;;;;;;;;;20.25;16.75;;;;;9.38;62.37;102698.50;5009533;28;44963;-67
2021/12/19 11:30:11;;;;;;;;;17.25;14.75;;;;;9.30;62.67;102681.06;5004624;28;45362;-68
2021/12/19 11:33:13;;;;;;;;;19.00;16.25;;;;;9.39;63.05;102685.25;5008480;28;45377;-70
2021/12/19 11:35:46;;;;;;;;;17.50;17.25;;;;;9.34;63.18;102686.72;5008371;28;46014;-68
2021/12/19 11:38:17;;;;;;;;;18.25;17.75;;;;;9.37;63.59;102683.28;5014422;28;45128;-68
2021/12/19 11:40:43;;;;;;;;;25.75;22.50;;;;;9.23;62.93;102651.34;5030110;28;44970;-68
2021/12/19 11:43:13;;;;;;;;;21.25;18.75;;;;;9.39;62.94;102679.91;5029883;28;45090;-69
2021/12/19 11:48:35;;;;;;;;;30.25;23.00;;;;;9.40;62.83;102657.75;5036473;28;45078;-70
2021/12/19 11:51:04;;;;;;;;;27.25;21.00;;;;;9.50;62.94;102661.91;5030886;28;45044;-69
2021/12/19 11:53:35;;;;;;;;;22.75;19.75;;;;;9.53;63.34;102654.06;5027957;28;45248;-66
2021/12/19 11:56:06;;;;;;;;;20.00;19.50;;;;;9.60;63.16;102655.38;5028966;28;46691;-68
2021/12/19 11:58:36;;;;;;;;;15.50;14.00;;;;;9.58;63.13;102649.00;5030413;28;45044;-68
2021/12/19 12:01:15;;;;;;;;;23.50;20.00;;;;;9.61;63.17;102646.53;5021234;28;45319;-68
2021/12/19 12:03:50;;;;;;;;;19.00;15.50;;;;;9.62;62.44;102645.72;5030415;28;44903;-67
2021/12/19 12:06:21;;;;;;;;;23.50;20.50;;;;;9.59;62.97;102630.44;5024638;28;45548;-67
2021/12/19 12:09:06;;;;;;;;;25.75;20.25;;;;;9.61;63.13;102632.28;5030797;28;45036;-69
2021/12/19 12:11:33;;;;;;;;;20.50;20.00;;;;;9.40;63.24;102595.44;5030845;28;44956;-65
2021/12/19 12:14:20;;;;;;;;;28.75;21.25;;;;;9.62;63.10;102628.78;5029451;28;45426;-68
2021/12/19 12:16:57;;;;;;;;;28.75;24.25;;;;;9.57;63.48;102645.44;5032828;28;46080;-68
2021/12/19 12:20:12;;;;;;;;;21.25;21.00;;;;;9.62;63.26;102621.72;5045479;28;45012;-69
2021/12/19 12:22:43;;;;;;;;;25.50;25.25;;;;;9.64;63.62;102619.13;5027221;28;45407;-67
2021/12/19 12:25:20;;;;;;;;;28.25;22.50;;;;;9.62;63.51;102610.09;5028602;28;45477;-69
2021/12/19 12:28:03;;;;;;;;;27.25;22.75;;;;;9.50;63.30;102586.25;5018355;28;46145;-68
2021/12/19 12:30:32;;;;;;;;;23.00;21.25;;;;;9.62;63.70;102602.09;5031816;28;44962;-67
2021/12/19 12:33:01;;;;;;;;;22.75;17.75;;;;;9.66;63.35;102599.69;5031618;28;45283;-70
2021/12/19 12:35:31;;;;;;;;;26.50;23.25;;;;;9.47;63.25;102568.34;5027244;28;45498;-69